createdAt,value
2022-08-05T00:01:48.813Z,2.30
2022-08-05T00:04:17.950Z,3.25
2022-08-05T00:06:47.268Z,2.00
2022-08-05T00:09:20.994Z,1.58
2022-08-05T00:11:55.810Z,2.08
2022-08-05T00:14:31.399Z,2.03
2022-08-05T00:17:01.997Z,1.60
2022-08-05T00:19:33.831Z,2.25
2022-08-05T00:22:13.732Z,2.63
2022-08-05T00:24:47.388Z,2.15
2022-08-05T00:27:28.504Z,1.80
2022-08-05T00:30:04.222Z,2.25
2022-08-05T00:32:32.247Z,2.13
2022-08-05T00:35:07.619Z,1.95
2022-08-05T00:37:52.580Z,1.92
2022-08-05T00:40:27.815Z,1.50
2022-08-05T00:42:58.897Z,1.90
2022-08-05T00:45:37.885Z,1.58
2022-08-05T00:48:08.284Z,2.17
2022-08-05T00:50:38.004Z,1.70
2022-08-05T00:53:09.761Z,1.65
2022-08-05T00:55:55.550Z,2.03
2022-08-05T00:58:27.155Z,1.50
2022-08-05T01:00:55.950Z,2.10
2022-08-05T01:03:24.346Z,1.50
2022-08-05T01:06:01.592Z,1.58
2022-08-05T01:08:43.094Z,1.77
2022-08-05T01:11:22.550Z,1.92
2022-08-05T01:14:15.319Z,1.85
2022-08-05T01:16:50.365Z,1.58
2022-08-05T01:20:01.881Z,1.73
2022-08-05T01:22:36.595Z,1.47
2022-08-05T01:25:40.425Z,2.17
2022-08-05T01:28:28.577Z,1.73
2022-08-05T01:31:03.181Z,2.10
2022-08-05T01:33:36.100Z,1.83
2022-08-05T01:36:12.856Z,1.90
2022-08-05T01:38:48.332Z,1.92
2022-08-05T01:41:21.011Z,2.27
2022-08-05T01:43:52.638Z,1.77
2022-08-05T01:46:42.529Z,1.80
2022-08-05T01:49:23.840Z,2.03
2022-08-05T01:51:56.514Z,1.80
2022-08-05T01:54:30.421Z,1.60
2022-08-05T01:58:10.129Z,2.15
2022-08-05T01:59:52.759Z,1.92
2022-08-05T02:02:28.475Z,2.25
2022-08-05T02:05:00.256Z,1.75
2022-08-05T02:07:30.481Z,2.08
2022-08-05T02:09:59.047Z,1.88
2022-08-05T02:12:35.885Z,2.60
2022-08-05T02:15:12.136Z,2.20
2022-08-05T02:18:31.484Z,2.25
2022-08-05T02:20:46.906Z,1.77
2022-08-05T02:23:16.166Z,2.13
2022-08-05T02:25:49.811Z,2.10
2022-08-05T02:28:29.202Z,2.08
2022-08-05T02:31:07.643Z,1.90
2022-08-05T02:33:48.729Z,1.88
2022-08-05T02:38:58.132Z,2.00
2022-08-05T02:41:36.261Z,1.88
2022-08-05T02:44:18.182Z,2.10
2022-08-05T02:46:58.672Z,1.83
2022-08-05T02:49:35.762Z,2.50
2022-08-05T02:52:06.078Z,1.83
2022-08-05T02:54:37.260Z,2.00
2022-08-05T02:57:10.240Z,2.00
2022-08-05T02:59:56.362Z,1.95
2022-08-05T03:02:29.983Z,1.67
2022-08-05T03:05:00.198Z,3.08
2022-08-05T03:08:00.911Z,2.47
2022-08-05T03:10:24.687Z,2.45
2022-08-05T03:12:54.993Z,2.17
2022-08-05T03:15:24.363Z,1.85
2022-08-05T03:17:57.442Z,2.20
2022-08-05T03:20:26.486Z,2.17
2022-08-05T03:22:57.693Z,2.00
2022-08-05T03:25:32.402Z,1.60
2022-08-05T03:28:18.780Z,2.03
2022-08-05T03:30:49.699Z,1.85
2022-08-05T03:33:20.635Z,2.25
2022-08-05T03:35:51.689Z,2.05
2022-08-05T03:38:32.958Z,1.90
2022-08-05T03:41:08.216Z,2.45
2022-08-05T03:44:08.815Z,2.08
2022-08-05T03:46:29.543Z,2.22
2022-08-05T03:48:59.816Z,1.80
2022-08-05T03:52:37.710Z,1.98
2022-08-05T03:55:07.010Z,2.00
2022-08-05T03:57:41.571Z,2.28
2022-08-05T04:00:15.653Z,2.22
2022-08-05T04:05:33.590Z,2.28
2022-08-05T04:08:03.626Z,2.10
2022-08-05T04:10:38.152Z,2.28
2022-08-05T04:13:09.034Z,2.60
2022-08-05T04:15:37.417Z,2.50
2022-08-05T04:18:09.349Z,2.42
2022-08-05T04:20:41.310Z,2.40
2022-08-05T04:23:12.446Z,2.20
2022-08-05T04:26:00.589Z,2.33
2022-08-05T04:28:30.946Z,2.35
2022-08-05T04:31:00.877Z,2.25
2022-08-05T04:33:54.752Z,2.47
2022-08-05T04:36:45.986Z,2.53
2022-08-05T04:39:07.532Z,2.85
2022-08-05T04:41:36.859Z,2.92
2022-08-05T04:44:08.833Z,3.53
2022-08-05T04:46:38.195Z,2.88
2022-08-05T04:49:14.496Z,3.63
2022-08-05T04:51:44.650Z,3.65
2022-08-05T04:54:14.824Z,3.63
2022-08-05T04:56:43.517Z,3.13
2022-08-05T04:59:13.957Z,3.10
2022-08-05T05:02:07.590Z,3.05
2022-08-05T05:04:47.550Z,3.45
2022-08-05T05:07:23.847Z,3.53
2022-08-05T05:09:57.359Z,3.42
2022-08-05T05:12:27.182Z,2.70
2022-08-05T05:14:55.767Z,4.43
2022-08-05T05:17:55.391Z,3.10
2022-08-05T05:20:13.803Z,3.30
2022-08-05T05:22:44.095Z,2.85
2022-08-05T05:25:16.504Z,2.55
2022-08-05T05:27:53.506Z,3.05
2022-08-05T05:30:31.340Z,2.22
2022-08-05T05:33:09.106Z,2.78
2022-08-05T05:35:45.015Z,2.97
2022-08-05T05:38:14.511Z,2.72
2022-08-05T05:40:50.068Z,2.60
2022-08-05T05:43:27.497Z,3.25
2022-08-05T05:46:12.207Z,2.83
2022-08-05T05:48:44.286Z,3.10
2022-08-05T05:51:14.892Z,2.72
2022-08-05T05:53:46.000Z,2.97
2022-08-05T05:56:32.386Z,2.95
2022-08-05T05:59:03.137Z,3.13
2022-08-05T06:01:37.760Z,2.65
2022-08-05T06:04:08.169Z,3.15
2022-08-05T06:06:36.855Z,2.30
2022-08-05T06:09:18.542Z,2.70
2022-08-05T06:11:59.308Z,2.63
2022-08-05T06:14:29.646Z,2.15
2022-08-05T06:16:58.142Z,2.60
2022-08-05T06:19:34.773Z,2.45
2022-08-05T06:22:03.796Z,3.05
2022-08-05T06:24:33.367Z,2.55
2022-08-05T06:27:04.037Z,2.90
2022-08-05T06:29:49.610Z,3.42
2022-08-05T06:32:26.282Z,2.55
2022-08-05T06:34:58.696Z,2.58
2022-08-05T06:37:58.403Z,2.50
2022-08-05T06:40:18.184Z,3.03
2022-08-05T06:42:51.652Z,2.28
2022-08-05T06:45:21.165Z,2.35
2022-08-05T06:48:35.939Z,2.42
2022-08-05T06:50:40.695Z,2.53
2022-08-05T06:53:19.569Z,2.25
2022-08-05T06:58:29.972Z,2.25
2022-08-05T07:01:05.433Z,2.17
2022-08-05T07:03:33.933Z,2.20
2022-08-05T07:06:06.045Z,2.47
2022-08-05T07:08:43.167Z,2.33
2022-08-05T07:11:22.160Z,2.20
2022-08-05T07:14:19.947Z,2.25
2022-08-05T07:18:02.123Z,2.20
2022-08-05T07:25:53.930Z,1.90
2022-08-05T07:28:11.815Z,2.50
2022-08-05T07:30:50.415Z,2.08
2022-08-05T07:33:36.762Z,2.13
2022-08-05T07:36:21.536Z,2.35
2022-08-05T07:38:54.956Z,2.22
2022-08-05T07:42:07.744Z,2.30
2022-08-05T07:44:19.003Z,2.38
2022-08-05T07:46:49.263Z,2.80
2022-08-05T07:49:20.970Z,2.63
2022-08-05T07:54:51.317Z,2.22
2022-08-05T07:58:02.988Z,3.05
2022-08-05T08:00:36.310Z,2.33
2022-08-05T08:03:14.822Z,2.47
2022-08-05T08:05:49.802Z,2.60
2022-08-05T08:08:21.749Z,2.47
2022-08-05T08:10:56.242Z,2.40
2022-08-05T08:13:29.104Z,1.88
2022-08-05T08:16:50.038Z,2.08
2022-08-05T08:18:49.893Z,2.25
2022-08-05T08:21:18.791Z,1.92
2022-08-05T08:24:02.013Z,1.60
2022-08-05T08:26:32.817Z,1.88
2022-08-05T08:29:09.793Z,1.98
2022-08-05T08:31:52.275Z,1.48
2022-08-05T08:34:30.790Z,1.60
2022-08-05T08:37:04.806Z,1.30
2022-08-05T08:39:37.858Z,1.60
2022-08-05T08:42:32.405Z,1.67
2022-08-05T08:45:25.408Z,1.30
2022-08-05T08:48:12.621Z,1.40
2022-08-05T08:51:03.525Z,1.52
2022-08-05T08:53:30.673Z,1.50
2022-08-05T08:56:05.071Z,1.42
2022-08-05T08:58:44.509Z,1.40
2022-08-05T09:01:18.078Z,1.70
2022-08-05T09:03:55.312Z,1.95
2022-08-05T09:06:29.992Z,1.50
2022-08-05T09:09:00.382Z,1.38
2022-08-05T09:11:50.723Z,1.38
2022-08-05T09:14:58.530Z,1.45
2022-08-05T09:17:09.530Z,1.50
2022-08-05T09:20:01.561Z,1.30
2022-08-05T09:23:09.292Z,1.40
2022-08-05T09:26:01.503Z,1.60
2022-08-05T09:28:32.257Z,1.13
2022-08-05T09:32:38.713Z,2.28
2022-08-05T09:33:58.718Z,1.33
2022-08-05T09:36:54.067Z,1.42
2022-08-05T09:39:42.030Z,1.60
2022-08-05T09:42:17.348Z,1.63
2022-08-05T09:44:56.013Z,1.30
2022-08-05T09:47:35.201Z,1.77
2022-08-05T09:50:17.783Z,1.65
2022-08-05T09:53:02.213Z,1.40
2022-08-05T09:55:57.946Z,1.05
2022-08-05T09:58:25.727Z,1.70
2022-08-05T10:01:00.952Z,1.70
2022-08-05T10:03:38.735Z,1.60
2022-08-05T10:06:24.084Z,1.83
2022-08-05T10:08:56.164Z,1.60
2022-08-05T10:11:31.420Z,1.52
2022-08-05T10:14:22.398Z,1.52
2022-08-05T10:16:52.972Z,1.48
2022-08-05T10:19:23.572Z,1.73
2022-08-05T10:22:00.912Z,1.35
2022-08-05T10:24:34.374Z,1.70
2022-08-05T10:27:08.323Z,1.65
2022-08-05T10:30:06.951Z,1.80
2022-08-05T10:32:52.513Z,1.75
2022-08-05T10:35:14.259Z,1.73
2022-08-05T10:37:44.686Z,1.60
2022-08-05T10:40:28.101Z,1.40
2022-08-05T10:45:40.090Z,1.67
2022-08-05T10:48:38.446Z,1.50
2022-08-05T10:51:28.329Z,1.70
2022-08-05T10:54:01.769Z,1.77
2022-08-05T10:56:46.766Z,1.83
2022-08-05T11:00:03.195Z,1.73
2022-08-05T11:02:14.469Z,1.75
2022-08-05T11:04:57.678Z,1.50
2022-08-05T11:07:32.982Z,2.20
2022-08-05T11:10:30.018Z,2.00
2022-08-05T11:13:01.709Z,1.60
2022-08-05T11:16:00.851Z,1.60
2022-08-05T11:18:32.338Z,1.80
2022-08-05T11:21:11.290Z,1.88
2022-08-05T11:24:05.536Z,1.45
2022-08-05T11:26:35.087Z,1.75
2022-08-05T11:29:13.775Z,2.03
2022-08-05T11:31:56.417Z,2.25
2022-08-05T11:34:50.781Z,1.98
2022-08-05T11:38:26.641Z,1.42
2022-08-05T11:41:34.545Z,1.70
2022-08-05T11:44:04.841Z,1.88
2022-08-05T11:46:58.205Z,1.55
2022-08-05T11:49:27.578Z,2.22
2022-08-05T11:51:57.419Z,1.85
2022-08-05T11:54:33.988Z,1.83
2022-08-05T11:57:08.095Z,1.60
2022-08-05T11:59:52.995Z,1.75
2022-08-05T12:02:31.380Z,1.90
2022-08-05T12:05:07.438Z,1.77
2022-08-05T12:08:09.559Z,2.17
2022-08-05T12:10:38.530Z,2.28
2022-08-05T12:13:16.684Z,1.63
2022-08-05T12:15:49.938Z,2.05
2022-08-05T12:18:32.955Z,2.20
2022-08-05T12:21:11.482Z,1.90
2022-08-05T12:23:43.166Z,2.25
2022-08-05T12:26:11.578Z,1.77
2022-08-05T12:28:39.730Z,2.28
2022-08-05T12:31:07.804Z,1.95
2022-08-05T12:33:38.798Z,1.48
2022-08-05T12:36:08.983Z,1.65
2022-08-05T12:38:39.579Z,2.42
2022-08-05T12:41:13.499Z,1.95
2022-08-05T12:43:56.687Z,2.00
2022-08-05T12:46:29.220Z,1.83
2022-08-05T12:49:05.870Z,2.28
2022-08-05T12:52:10.643Z,2.05
2022-08-05T12:54:37.399Z,1.70
2022-08-05T12:57:09.607Z,2.28
2022-08-05T13:01:58.539Z,1.90
2022-08-05T13:02:39.806Z,1.77
2022-08-05T13:05:12.668Z,1.60
2022-08-05T13:08:01.013Z,1.73
2022-08-05T13:10:33.284Z,1.67
2022-08-05T13:13:02.755Z,1.67
2022-08-05T13:15:41.183Z,2.03
2022-08-05T13:18:19.383Z,1.75
2022-08-05T13:20:50.337Z,1.95
2022-08-05T13:23:22.876Z,2.60
2022-08-05T13:25:59.567Z,1.67
2022-08-05T13:28:32.395Z,1.60
2022-08-05T13:31:11.235Z,1.80
2022-08-05T13:34:22.728Z,1.73
2022-08-05T13:36:34.522Z,2.28
2022-08-05T13:39:02.741Z,1.98
2022-08-05T13:41:50.868Z,2.08
2022-08-05T13:44:19.249Z,1.98
2022-08-05T13:47:02.468Z,2.20
2022-08-05T13:49:35.420Z,2.45
2022-08-05T13:52:13.509Z,1.88
2022-08-05T13:54:42.354Z,1.92
2022-08-05T13:57:23.160Z,2.00
2022-08-05T13:59:59.359Z,1.98
2022-08-05T14:02:31.374Z,2.03
2022-08-05T14:05:29.528Z,2.38
2022-08-05T14:08:11.382Z,2.17
2022-08-05T14:10:51.393Z,2.28
2022-08-05T14:13:23.524Z,2.40
2022-08-05T14:16:04.489Z,1.88
2022-08-05T14:18:34.957Z,1.80
2022-08-05T14:22:07.203Z,2.38
2022-08-05T14:23:57.813Z,1.70
2022-08-05T14:26:37.067Z,2.20
2022-08-05T14:29:16.290Z,2.47
2022-08-05T14:32:02.600Z,2.22
2022-08-05T14:34:37.054Z,2.22
2022-08-05T14:37:09.248Z,1.60
2022-08-05T14:39:57.039Z,2.08
2022-08-05T14:42:34.356Z,1.70
2022-08-05T14:45:07.648Z,1.77
2022-08-05T14:48:04.205Z,2.10
2022-08-05T14:50:27.414Z,2.55
2022-08-05T14:52:59.113Z,1.55
2022-08-05T14:55:38.689Z,1.58
2022-08-05T14:58:11.157Z,1.85
2022-08-05T15:00:59.638Z,1.75
2022-08-05T15:03:34.000Z,2.22
2022-08-05T15:06:15.420Z,2.00
2022-08-05T15:08:59.752Z,2.17
2022-08-05T15:11:52.325Z,2.33
2022-08-05T15:14:34.447Z,2.50
2022-08-05T15:17:09.801Z,2.40
2022-08-05T15:19:55.160Z,2.50
2022-08-05T15:22:27.411Z,2.10
2022-08-05T15:24:56.819Z,3.10
2022-08-05T15:27:26.638Z,2.63
2022-08-05T15:30:05.076Z,2.20
2022-08-05T15:32:33.357Z,2.50
2022-08-05T15:35:04.129Z,2.65
2022-08-05T15:38:35.003Z,2.65
2022-08-05T15:40:58.761Z,2.50
2022-08-05T15:43:20.518Z,3.92
2022-08-05T15:46:00.806Z,2.70
2022-08-05T15:48:30.079Z,2.72
2022-08-05T15:51:03.307Z,2.53
2022-08-05T15:53:37.809Z,3.70
2022-08-05T15:56:13.153Z,2.90
2022-08-05T15:58:43.868Z,3.00
2022-08-05T16:01:17.407Z,2.67
2022-08-05T16:06:20.231Z,2.50
2022-08-05T16:08:51.294Z,2.90
2022-08-05T16:11:42.560Z,2.65
2022-08-05T16:14:17.159Z,2.92
2022-08-05T16:16:46.656Z,2.30
2022-08-05T16:19:25.569Z,2.72
2022-08-05T16:22:03.674Z,3.10
2022-08-05T16:24:39.777Z,2.97
2022-08-05T16:27:10.300Z,2.78
2022-08-05T16:29:50.837Z,2.83
2022-08-05T16:32:28.537Z,2.45
2022-08-05T16:34:57.586Z,2.50
2022-08-05T16:38:15.000Z,2.13
2022-08-05T16:40:26.709Z,2.47
2022-08-05T16:42:57.640Z,2.70
2022-08-05T16:46:02.802Z,2.38
2022-08-05T16:48:25.200Z,2.30
2022-08-05T16:50:57.022Z,2.63
2022-08-05T16:53:32.018Z,2.60
2022-08-05T16:56:04.832Z,2.25
2022-08-05T16:58:42.086Z,2.42
2022-08-05T17:01:18.902Z,2.40
2022-08-05T17:03:49.155Z,2.67
2022-08-05T17:06:17.859Z,1.95
2022-08-05T17:08:52.763Z,2.35
2022-08-05T17:11:25.995Z,2.47
2022-08-05T17:14:05.222Z,2.70
2022-08-05T17:16:40.787Z,2.50
2022-08-05T17:19:10.915Z,3.08
2022-08-05T17:21:51.591Z,2.33
2022-08-05T17:24:36.557Z,2.83
2022-08-05T17:27:09.252Z,2.33
2022-08-05T17:29:41.774Z,2.20
2022-08-05T17:32:17.276Z,2.33
2022-08-05T17:34:48.090Z,2.22
2022-08-05T17:37:39.755Z,2.17
2022-08-05T17:40:12.910Z,2.63
2022-08-05T17:42:51.042Z,2.35
2022-08-05T17:45:22.241Z,2.15
2022-08-05T17:47:59.832Z,2.40
2022-08-05T17:50:30.998Z,2.20
2022-08-05T17:53:13.034Z,1.83
2022-08-05T17:55:44.181Z,2.58
2022-08-05T17:58:16.380Z,2.10
2022-08-05T18:00:51.724Z,2.85
2022-08-05T18:03:56.435Z,2.10
2022-08-05T18:06:16.330Z,2.03
2022-08-05T18:08:52.351Z,1.85
2022-08-05T18:11:24.759Z,2.03
2022-08-05T18:14:13.190Z,2.08
2022-08-05T18:16:51.848Z,2.10
2022-08-05T18:19:26.061Z,2.05
2022-08-05T18:22:09.777Z,1.92
2022-08-05T18:24:40.267Z,1.90
2022-08-05T18:27:18.094Z,2.10
2022-08-05T18:29:51.959Z,2.00
2022-08-05T18:32:28.214Z,2.22
2022-08-05T18:34:59.546Z,2.38
2022-08-05T18:37:34.209Z,2.25
2022-08-05T18:41:50.554Z,2.30
2022-08-05T18:42:57.930Z,2.30
2022-08-05T18:45:41.311Z,2.13
2022-08-05T18:48:11.350Z,2.75
2022-08-05T18:51:01.659Z,1.67
2022-08-05T18:53:50.520Z,1.88
2022-08-05T18:56:21.879Z,2.10
2022-08-05T18:58:54.906Z,1.77
2022-08-05T19:01:33.596Z,1.63
2022-08-05T19:04:24.092Z,1.75
2022-08-05T19:06:53.988Z,1.73
2022-08-05T19:09:22.503Z,1.70
2022-08-05T19:11:59.194Z,1.98
2022-08-05T19:14:37.807Z,1.48
2022-08-05T19:17:18.244Z,2.08
2022-08-05T19:19:48.524Z,1.65
2022-08-05T19:22:18.786Z,1.73
2022-08-05T19:24:54.185Z,1.67
2022-08-05T19:29:58.389Z,1.60
2022-08-05T19:32:27.918Z,1.63
2022-08-05T19:34:56.491Z,1.40
2022-08-05T19:37:29.997Z,1.45
2022-08-05T19:40:15.857Z,1.55
2022-08-05T19:43:04.927Z,1.35
2022-08-05T19:45:36.442Z,2.60
2022-08-05T19:48:05.998Z,1.73
2022-08-05T19:50:35.074Z,1.77
2022-08-05T19:53:10.404Z,1.50
2022-08-05T19:56:14.803Z,1.58
2022-08-05T19:58:30.104Z,2.13
2022-08-05T20:00:58.370Z,1.95
2022-08-05T20:03:27.466Z,2.05
2022-08-05T20:06:15.767Z,1.45
2022-08-05T20:08:52.821Z,1.42
2022-08-05T20:11:22.691Z,1.88
2022-08-05T20:13:58.318Z,1.75
2022-08-05T20:16:39.045Z,1.92
2022-08-05T20:19:07.338Z,1.73
2022-08-05T20:21:35.447Z,1.80
2022-08-05T20:24:11.606Z,2.50
2022-08-05T20:26:39.745Z,2.10
2022-08-05T20:29:26.880Z,2.33
2022-08-05T20:31:58.283Z,2.20
2022-08-05T20:34:27.739Z,2.00
2022-08-05T20:36:55.745Z,1.83
2022-08-05T20:39:25.152Z,1.75
2022-08-05T20:42:03.780Z,2.30
2022-08-05T20:44:32.876Z,2.35
2022-08-05T20:47:07.475Z,2.70
2022-08-05T20:49:39.441Z,2.83
2022-08-05T20:52:08.683Z,2.78
2022-08-05T20:54:55.065Z,4.32
2022-08-05T20:57:43.378Z,4.35
2022-08-05T21:00:41.068Z,4.25
2022-08-05T21:03:06.269Z,3.72
2022-08-05T21:05:47.917Z,4.03
2022-08-05T21:08:33.019Z,3.40
2022-08-05T21:11:12.730Z,4.20
2022-08-05T21:13:55.863Z,3.75
2022-08-05T21:16:29.877Z,4.57
2022-08-05T21:19:00.396Z,3.72
2022-08-05T21:21:43.956Z,4.68
2022-08-05T21:24:19.703Z,3.25
2022-08-05T21:26:57.844Z,3.65
2022-08-05T21:29:32.024Z,4.25
2022-08-05T21:32:01.404Z,3.60
2022-08-05T21:34:31.621Z,3.97
2022-08-05T21:37:01.134Z,3.30
2022-08-05T21:39:29.875Z,3.35
2022-08-05T21:42:01.163Z,4.50
2022-08-05T21:44:30.330Z,4.43
2022-08-05T21:46:59.205Z,4.20
2022-08-05T21:49:58.545Z,3.65
2022-08-05T21:52:26.935Z,4.00
2022-08-05T21:54:56.745Z,3.55
2022-08-05T21:57:33.280Z,4.30
2022-08-05T22:00:06.387Z,4.00
2022-08-05T22:02:35.188Z,4.22
2022-08-05T22:05:04.478Z,3.85
2022-08-05T22:07:40.452Z,4.65
2022-08-05T22:10:27.080Z,3.75
2022-08-05T22:12:58.712Z,4.07
2022-08-05T22:16:00.750Z,3.38
2022-08-05T22:18:16.016Z,3.67
2022-08-05T22:20:47.661Z,4.18
2022-08-05T22:24:02.180Z,2.97
2022-08-05T22:26:42.708Z,3.47
2022-08-05T22:29:26.823Z,2.55
2022-08-05T22:31:59.348Z,2.90
2022-08-05T22:34:28.932Z,2.90
2022-08-05T22:36:58.823Z,2.75
2022-08-05T22:39:32.578Z,2.83
2022-08-05T22:42:11.717Z,3.03
2022-08-05T22:44:48.228Z,2.40
2022-08-05T22:47:29.555Z,2.63
2022-08-05T22:50:18.410Z,1.88
2022-08-05T22:52:48.263Z,2.35
2022-08-05T22:55:19.287Z,2.50
2022-08-05T22:57:49.020Z,2.47
2022-08-05T23:00:20.876Z,2.67
2022-08-05T23:02:50.138Z,2.70
2022-08-05T23:05:18.847Z,2.47
2022-08-05T23:07:50.500Z,3.60
2022-08-05T23:10:20.635Z,3.20
2022-08-05T23:12:51.481Z,2.78
2022-08-05T23:15:26.956Z,2.80
2022-08-05T23:18:01.210Z,2.85
2022-08-05T23:20:32.109Z,2.92
2022-08-05T23:23:03.481Z,3.00
2022-08-05T23:25:51.216Z,2.78
2022-08-05T23:28:22.652Z,3.15
2022-08-05T23:30:54.695Z,3.05
2022-08-05T23:33:26.283Z,2.88
2022-08-05T23:36:13.575Z,2.92
2022-08-05T23:38:42.862Z,2.65
2022-08-05T23:41:11.770Z,2.33
2022-08-05T23:44:04.524Z,2.45
2022-08-05T23:46:29.763Z,2.80
2022-08-05T23:49:01.023Z,2.50
2022-08-05T23:51:55.151Z,2.63
2022-08-05T23:54:25.622Z,3.03
2022-08-05T23:56:55.489Z,2.20
2022-08-05T23:59:27.833Z,2.95
